Time;durP1;ratioP1;P1;durP2;ratioP2;P2;SDS_P1;SDS_P2;PMS_P1;PMS_P2;Temp;Humidity;BMP_temperature;BMP_pressure;BME280_temperature;BME280_humidity;BME280_pressure;Samples;Min_cycle;Max_cycle;Signal;HPM_P1;HPM_P2
2022/12/20 06:43:58;;;;;;;60.90;31.15;;;;;;;-3.99;88.65;99070.81;1861525;77;20974;-60
2022/12/20 06:46:27;;;;;;;65.85;34.13;;;;;;;-3.93;88.64;99075.38;1856543;77;21831;-62
2022/12/20 06:48:56;;;;;;;54.15;29.40;;;;;;;-3.87;88.63;99075.98;1842763;77;20920;-61
2022/12/20 06:51:23;;;;;;;46.50;25.65;;;;;;;-3.79;88.53;99065.48;1846610;77;20859;-62
2022/12/20 06:53:50;;;;;;;36.65;19.17;;;;;;;-3.70;88.23;99069.15;1832843;77;20905;-61
2022/12/20 06:56:17;;;;;;;32.70;19.60;;;;;;;-3.62;88.43;99058.63;1828370;77;21018;-61
2022/12/20 06:58:45;;;;;;;42.43;23.25;;;;;;;-3.52;88.53;99058.41;1811001;77;21136;-63
2022/12/20 07:01:12;;;;;;;37.95;22.90;;;;;;;-3.44;88.19;99053.12;1791236;80;20860;-61
2022/12/20 07:03:38;;;;;;;42.10;23.35;;;;;;;-3.37;88.26;99056.66;1807334;78;20898;-59
2022/12/20 07:06:06;;;;;;;37.28;19.95;;;;;;;-3.26;88.24;99052.80;1810539;78;20902;-61
2022/12/20 07:08:32;;;;;;;32.50;20.82;;;;;;;-3.15;88.07;99054.98;1807127;78;20929;-64
2022/12/20 07:11:06;;;;;;;40.88;23.75;;;;;;;-3.07;87.07;99047.87;1819172;78;21039;-64
2022/12/20 07:13:33;;;;;;;34.10;21.60;;;;;;;-3.01;86.77;99043.22;1812103;78;20925;-62
2022/12/20 07:16:01;;;;;;;34.63;19.42;;;;;;;-2.94;86.14;99049.38;1806208;78;20945;-60
2022/12/20 07:18:29;;;;;;;31.93;19.17;;;;;;;-2.90;85.72;99046.70;1791240;80;21473;-62
2022/12/20 07:21:00;;;;;;;32.30;19.98;;;;;;;-2.88;85.48;99047.38;1759971;81;20896;-64
2022/12/20 07:23:27;;;;;;;30.83;19.33;;;;;;;-2.83;85.61;99038.44;1800350;78;21194;-65
2022/12/20 07:25:58;;;;;;;43.05;25.05;;;;;;;-2.79;84.96;99037.11;1814508;78;20922;-63
2022/12/20 07:28:25;;;;;;;35.83;21.82;;;;;;;-2.78;85.14;99041.34;1807626;79;21385;-60
2022/12/20 07:30:53;;;;;;;43.13;23.00;;;;;;;-2.73;85.16;99037.39;1807562;79;20921;-60
2022/12/20 07:33:20;;;;;;;30.30;18.85;;;;;;;-2.69;85.04;99038.65;1807678;79;20980;-62
2022/12/20 07:35:46;;;;;;;30.32;19.20;;;;;;;-2.66;84.93;99038.30;1807657;79;21398;-62
2022/12/20 07:38:13;;;;;;;35.48;21.70;;;;;;;-2.63;85.16;99035.29;1803561;78;20931;-63
2022/12/20 07:40:41;;;;;;;37.15;24.45;;;;;;;-2.58;85.19;99030.31;1770770;79;20935;-60
2022/12/20 07:43:11;;;;;;;34.92;23.98;;;;;;;-2.54;85.24;99034.23;1799362;78;20939;-64
2022/12/20 07:45:37;;;;;;;38.02;23.00;;;;;;;-2.50;85.22;99031.55;1789847;80;20986;-62
2022/12/20 07:48:04;;;;;;;33.80;20.15;;;;;;;-2.44;85.41;99023.76;1799484;78;21112;-60
2022/12/20 07:50:32;;;;;;;33.13;18.95;;;;;;;-2.34;85.23;99020.36;1817478;77;21437;-63
2022/12/20 07:52:59;;;;;;;37.65;22.58;;;;;;;-2.24;85.14;99013.52;1810154;77;20985;-60
2022/12/20 07:55:25;;;;;;;37.78;22.85;;;;;;;-2.13;84.86;99013.03;1814405;79;21018;-58
2022/12/20 07:57:58;;;;;;;50.03;28.35;;;;;;;-2.04;84.76;99015.03;1817136;77;20923;-63
2022/12/20 08:00:24;;;;;;;23.92;14.25;;;;;;;-1.97;83.93;99009.36;1816387;78;21234;-59
2022/12/20 08:03:14;;;;;;;25.65;15.88;;;;;;;-1.89;81.40;99004.82;1817237;78;21430;-58
2022/12/20 08:05:42;;;;;;;39.23;25.40;;;;;;;-1.80;81.44;99010.27;1809747;77;21465;-64
2022/12/20 08:08:09;;;;;;;33.73;21.52;;;;;;;-1.72;81.93;99006.70;1813483;78;21009;-61
2022/12/20 08:10:37;;;;;;;34.00;21.70;;;;;;;-1.65;81.75;99002.33;1820841;78;21367;-63
2022/12/20 08:13:05;;;;;;;26.57;16.93;;;;;;;-1.60;82.12;99005.21;1820603;78;21619;-64
2022/12/20 08:15:34;;;;;;;29.67;19.90;;;;;;;-1.56;82.42;98999.39;1820602;78;20970;-60
2022/12/20 08:18:01;;;;;;;24.67;17.17;;;;;;;-1.53;82.64;99001.62;1821486;78;20896;-61
2022/12/20 08:20:28;;;;;;;32.15;20.57;;;;;;;-1.50;82.61;98992.55;1821603;78;20994;-59
2022/12/20 08:22:55;;;;;;;25.27;17.32;;;;;;;-1.46;82.88;98996.44;1821491;78;21398;-59
2022/12/20 08:25:21;;;;;;;26.95;16.97;;;;;;;-1.43;82.99;98998.67;1821248;78;21254;-60
2022/12/20 08:27:48;;;;;;;23.42;15.23;;;;;;;-1.42;82.90;98989.80;1821405;78;21524;-63
2022/12/20 08:30:15;;;;;;;21.27;13.13;;;;;;;-1.39;82.84;98990.22;1821853;78;21391;-62
2022/12/20 08:32:42;;;;;;;23.40;14.68;;;;;;;-1.32;82.68;98983.72;1821738;78;21419;-59
2022/12/20 08:35:08;;;;;;;26.70;15.30;;;;;;;-1.27;82.77;98988.41;1821673;78;20959;-59
2022/12/20 08:37:35;;;;;;;26.40;15.80;;;;;;;-1.21;82.75;98981.88;1821545;78;21194;-61
2022/12/20 08:40:03;;;;;;;26.48;15.88;;;;;;;-1.19;83.06;98971.98;1828534;77;21371;-60
2022/12/20 08:42:30;;;;;;;22.45;13.95;;;;;;;-1.19;82.85;98961.95;1777081;80;20896;-59
2022/12/20 08:44:57;;;;;;;21.50;13.20;;;;;;;-1.22;83.23;98971.03;1793789;79;21002;-61
2022/12/20 08:47:23;;;;;;;20.37;11.65;;;;;;;-1.19;83.29;98961.95;1789263;79;20932;-62
2022/12/20 08:49:50;;;;;;;17.95;11.60;;;;;;;-1.17;83.03;98958.63;1809006;79;21244;-62
2022/12/20 08:52:17;;;;;;;19.07;11.50;;;;;;;-1.16;83.62;98951.88;1808818;79;21031;-59
2022/12/20 08:54:43;;;;;;;16.48;10.95;;;;;;;-1.11;83.47;98946.05;1809000;79;21396;-58
2022/12/20 08:57:10;;;;;;;25.72;14.98;;;;;;;-1.10;83.55;98952.41;1808981;79;20914;-63
2022/12/20 08:59:37;;;;;;;26.23;16.32;;;;;;;-1.06;84.46;98934.45;1809035;79;20888;-62
2022/12/20 09:02:04;;;;;;;29.95;15.95;;;;;;;-1.01;85.28;98942.55;1809093;79;21309;-66
2022/12/20 09:04:31;;;;;;;26.15;14.65;;;;;;;-0.94;85.50;98930.25;1790634;79;21520;-64
2022/12/20 09:06:58;;;;;;;19.00;11.60;;;;;;;-0.87;85.55;98925.83;1801923;79;21068;-63
2022/12/20 09:09:25;;;;;;;26.90;16.45;;;;;;;-0.78;85.57;98931.27;1779679;79;20987;-60
2022/12/20 09:11:52;;;;;;;18.32;11.73;;;;;;;-0.77;85.89;98917.91;1787558;79;20932;-62
2022/12/20 09:14:18;;;;;;;19.90;11.70;;;;;;;-0.76;85.90;98912.15;1784180;79;21690;-62
2022/12/20 09:16:45;;;;;;;19.60;11.68;;;;;;;-0.73;85.99;98918.34;1787494;79;20829;-60
2022/12/20 09:19:13;;;;;;;21.93;12.78;;;;;;;-0.70;85.58;98913.98;1775808;80;21386;-62
2022/12/20 09:21:40;;;;;;;17.00;10.70;;;;;;;-0.64;85.77;98901.38;1754642;80;21415;-61
2022/12/20 09:24:07;;;;;;;16.95;10.90;;;;;;;-0.58;85.32;98896.63;1808014;79;22277;-62
2022/12/20 09:26:34;;;;;;;16.20;11.35;;;;;;;-0.55;84.97;98896.24;1779313;80;21143;-62
2022/12/20 09:29:01;;;;;;;18.30;11.60;;;;;;;-0.56;85.08;98881.45;1772299;80;20941;-64
2022/12/20 09:31:28;;;;;;;15.85;10.20;;;;;;;-0.56;84.73;98884.08;1767119;81;21504;-61
2022/12/20 09:33:56;;;;;;;16.90;10.08;;;;;;;-0.58;84.59;98887.42;1765096;80;20936;-59
2022/12/20 09:36:25;;;;;;;16.62;10.45;;;;;;;-0.59;84.06;98875.29;1783498;79;20927;-60
2022/12/20 09:38:53;;;;;;;15.80;10.82;;;;;;;-0.58;84.13;98875.58;1806414;79;21200;-62
2022/12/20 09:41:39;;;;;;;19.10;12.28;;;;;;;-0.57;84.29;98877.21;1769051;79;21511;-60
2022/12/20 09:44:26;;;;;;;16.97;11.08;;;;;;;-0.55;84.92;98876.50;1781090;80;26485;-58
2022/12/20 09:47:16;;;;;;;21.25;11.73;;;;;;;-0.50;83.86;98887.25;1774964;79;20948;-66
2022/12/20 09:49:46;;;;;;;18.87;10.85;;;;;;;-0.47;83.62;98884.20;1761196;80;20900;-66
2022/12/20 09:52:52;;;;;;;19.87;11.97;;;;;;;-0.44;83.46;98871.97;1777204;80;21800;-64
2022/12/20 09:55:49;;;;;;;21.02;11.38;;;;;;;-0.43;83.42;98867.53;1837450;77;20881;-58
2022/12/20 09:58:50;;;;;;;16.50;10.93;;;;;;;-0.46;82.87;98863.47;1815132;78;21018;-62
2022/12/20 10:01:21;;;;;;;20.95;11.57;;;;;;;-0.45;83.43;98867.73;1816679;77;20970;-63
2022/12/20 10:03:48;;;;;;;17.07;10.90;;;;;;;-0.48;83.26;98864.17;1846774;77;20924;-59
2022/12/20 10:06:27;;;;;;;20.05;12.53;;;;;;;-0.49;83.37;98856.46;1849162;77;21125;-63
2022/12/20 10:08:59;;;;;;;19.95;11.38;;;;;;;-0.48;83.59;98852.33;1785108;77;20896;-59
2022/12/20 10:11:50;;;;;;;21.10;12.15;;;;;;;-0.45;83.61;98849.31;1827413;77;20971;-59
2022/12/20 10:14:35;;;;;;;19.95;12.03;;;;;;;-0.42;83.05;98844.13;1783322;79;20937;-59
2022/12/20 10:17:11;;;;;;;21.65;11.90;;;;;;;-0.44;83.65;98844.83;1786554;79;20991;-62
2022/12/20 10:20:07;;;;;;;18.90;11.97;;;;;;;-0.44;84.40;98846.97;1772662;80;21301;-59
2022/12/20 10:22:45;;;;;;;;;;;;;;;-0.43;84.16;98847.29;1764806;80;21022;-62
2022/12/20 10:25:17;;;;;;;24.72;17.85;;;;;;;-0.44;84.20;98832.49;1777064;80;20143;-62
2022/12/20 10:27:46;;;;;;;46.53;28.75;;;;;;;-0.45;84.15;98833.52;1769939;79;20986;-63
2022/12/20 10:30:17;;;;;;;50.60;28.47;;;;;;;-0.44;84.30;98825.09;1848194;77;20860;-59
2022/12/20 10:32:50;;;;;;;31.23;19.37;;;;;;;-0.43;84.54;98810.94;1816671;77;21153;-62
2022/12/20 10:35:27;;;;;;;28.87;19.48;;;;;;;-0.45;84.36;98801.12;1821947;77;21018;-59
2022/12/20 10:38:06;;;;;;;25.65;18.35;;;;;;;-0.45;84.66;98798.48;1832260;77;20967;-58
2022/12/20 10:40:43;;;;;;;22.73;14.50;;;;;;;-0.44;84.86;98804.86;1827647;77;20912;-60
2022/12/20 10:43:20;;;;;;;21.68;14.68;;;;;;;-0.42;84.83;98798.88;1782072;79;21028;-59
2022/12/20 10:46:00;;;;;;;25.40;14.00;;;;;;;-0.39;84.71;98792.41;1777154;80;21216;-63
2022/12/20 10:48:34;;;;;;;24.65;14.98;;;;;;;-0.37;84.91;98797.78;1748046;80;20905;-59
2022/12/20 10:51:14;;;;;;;21.02;13.20;;;;;;;-0.33;84.69;98796.89;1790303;79;20943;-60
2022/12/20 10:53:53;;;;;;;22.17;13.90;;;;;;;-0.29;84.80;98788.38;1757031;80;21533;-62
2022/12/20 10:56:27;;;;;;;23.47;14.55;;;;;;;-0.25;84.61;98796.17;1791307;79;21090;-58
2022/12/20 10:58:59;;;;;;;20.05;13.50;;;;;;;-0.19;85.01;98786.14;1793783;79;21791;-56
2022/12/20 11:01:34;;;;;;;18.85;13.08;;;;;;;-0.13;84.78;98782.71;1790470;79;20836;-60
2022/12/20 11:04:03;;;;;;;;;;;;;;;-0.09;85.16;98782.59;1774580;80;20975;-60
2022/12/20 11:06:43;;;;;;;23.38;14.70;;;;;;;-0.07;85.01;98779.75;1765852;80;20101;-54
2022/12/20 11:09:34;;;;;;;26.48;15.15;;;;;;;-0.07;85.05;98781.88;1799126;79;20975;-60
2022/12/20 11:12:08;;;;;;;21.25;14.43;;;;;;;-0.04;85.34;98776.22;1773012;80;21291;-59
2022/12/20 11:14:36;;;;;;;23.87;14.73;;;;;;;-0.01;85.04;98775.82;1771618;80;20876;-61
2022/12/20 11:17:07;;;;;;;23.87;14.50;;;;;;;0.03;85.11;98774.08;1768816;79;21530;-63
2022/12/20 11:19:57;;;;;;;24.30;14.33;;;;;;;0.05;85.45;98763.64;1785860;79;20916;-59
2022/12/20 11:22:55;;;;;;;21.30;13.38;;;;;;;0.10;85.24;98757.75;1758472;80;20876;-59
2022/12/20 11:25:52;;;;;;;21.57;13.32;;;;;;;0.14;85.40;98753.72;1773672;80;25203;-60
2022/12/20 11:28:33;;;;;;;26.23;15.63;;;;;;;0.20;85.36;98748.44;1793082;79;20877;-64
2022/12/20 11:31:43;;;;;;;22.02;13.75;;;;;;;0.26;85.29;98742.86;1754285;80;21138;-63
2022/12/20 11:34:35;;;;;;;22.87;14.55;;;;;;;0.32;85.01;98726.20;1769912;80;20942;-59
2022/12/20 11:40:37;;;;;;;28.50;21.45;;;;;;;0.44;84.01;98725.88;1749557;82;22058;-59
2022/12/20 11:43:25;;;;;;;46.88;36.20;;;;;;;0.49;83.66;98728.70;1767237;80;20960;-61
2022/12/20 11:46:26;;;;;;;36.70;25.10;;;;;;;0.54;83.29;98717.03;1760887;80;21033;-61
2022/12/20 11:49:30;;;;;;;26.50;18.60;;;;;;;0.59;82.45;98724.59;1830064;77;21112;-59
2022/12/20 11:52:42;;;;;;;30.75;18.50;;;;;;;0.63;82.10;98722.36;1840051;77;20970;-64
2022/12/20 11:55:23;;;;;;;36.50;23.77;;;;;;;0.65;82.20;98720.32;1833097;77;21665;-60
2022/12/20 11:57:56;;;;;;;23.07;15.38;;;;;;;0.69;82.55;98701.73;1829632;77;20964;-60
2022/12/20 12:00:23;;;;;;;22.32;16.10;;;;;;;0.75;82.49;98705.37;1824817;78;20878;-64
2022/12/20 12:03:14;;;;;;;18.27;12.33;;;;;;;0.82;82.33;98699.55;1829105;77;21006;-63
2022/12/20 12:05:50;;;;;;;19.02;13.53;;;;;;;0.82;81.01;98711.42;1844442;77;20959;-62
2022/12/20 12:08:46;;;;;;;23.77;13.15;;;;;;;0.82;81.07;98702.20;1840609;77;21122;-62
2022/12/20 12:11:27;;;;;;;19.30;13.35;;;;;;;0.81;80.98;98695.29;1839277;77;21006;-61
2022/12/20 12:13:54;;;;;;;23.62;14.73;;;;;;;0.78;80.74;98704.42;1844820;77;20993;-60
2022/12/20 12:16:27;;;;;;;23.20;15.32;;;;;;;0.78;81.31;98702.33;1824111;78;21523;-59
2022/12/20 12:18:56;;;;;;;27.02;18.48;;;;;;;0.81;81.55;98694.78;1842967;77;20860;-61
2022/12/20 12:21:30;;;;;;;25.95;17.50;;;;;;;0.85;81.59;98692.02;1783884;79;21291;-60
2022/12/20 12:24:14;;;;;;;24.82;16.23;;;;;;;0.87;81.82;98694.46;1835752;77;20864;-62
2022/12/20 12:26:40;;;;;;;23.42;15.18;;;;;;;0.90;81.66;98696.66;1858104;77;20954;-63
2022/12/20 12:29:14;;;;;;;21.30;13.95;;;;;;;0.93;81.42;98694.92;1851370;77;21021;-63
2022/12/20 12:32:01;;;;;;;22.13;15.08;;;;;;;0.90;80.95;98696.66;1824576;78;21529;-63
2022/12/20 12:34:52;;;;;;;31.48;21.00;;;;;;;0.87;81.02;98684.73;1795398;79;21252;-62
2022/12/20 12:37:48;;;;;;;22.07;15.32;;;;;;;0.87;81.19;98674.18;1846231;77;20931;-64
2022/12/20 12:40:49;;;;;;;19.52;14.15;;;;;;;0.95;80.94;98677.05;1833073;77;20935;-62
2022/12/20 12:43:52;;;;;;;22.77;15.30;;;;;;;0.98;80.82;98678.77;1855779;77;21074;-61
2022/12/20 12:46:28;;;;;;;21.95;13.25;;;;;;;0.98;80.80;98672.17;1839909;77;20990;-59
2022/12/20 12:49:09;;;;;;;23.27;16.02;;;;;;;0.99;80.83;98669.81;1840421;77;21246;-64
2022/12/20 12:51:38;;;;;;;24.82;16.90;;;;;;;1.01;80.61;98669.13;1845622;77;20821;-59
2022/12/20 12:54:25;;;;;;;26.05;17.67;;;;;;;1.02;80.52;98673.86;1825602;77;20903;-61
2022/12/20 12:56:52;;;;;;;32.70;15.68;;;;;;;0.98;80.36;98673.50;1839862;77;20939;-59
2022/12/20 12:59:33;;;;;;;27.45;18.27;;;;;;;0.98;80.56;98684.05;1821451;77;21453;-58
2022/12/20 13:02:19;;;;;;;25.88;17.40;;;;;;;0.97;80.90;98682.42;1834579;77;21277;-62
2022/12/20 13:05:00;;;;;;;31.65;17.52;;;;;;;0.96;81.04;98692.69;1841364;77;21044;-64
2022/12/20 13:07:38;;;;;;;24.45;16.57;;;;;;;0.99;81.11;98680.91;1831350;77;20871;-63
2022/12/20 13:10:28;;;;;;;23.42;17.23;;;;;;;0.96;81.18;98691.37;1809610;77;20884;-60
2022/12/20 13:12:59;;;;;;;24.85;17.32;;;;;;;0.95;81.11;98696.83;1829928;77;20869;-58
2022/12/20 13:15:31;;;;;;;28.10;18.20;;;;;;;0.95;81.22;98687.09;1829917;78;21199;-59
2022/12/20 13:18:09;;;;;;;27.45;19.62;;;;;;;0.97;81.23;98687.69;1834588;77;20900;-60
2022/12/20 13:20:36;;;;;;;25.80;17.55;;;;;;;0.96;81.19;98683.45;1837904;77;21426;-61
2022/12/20 13:23:16;;;;;;;34.35;22.87;;;;;;;0.92;81.25;98686.20;1825657;77;20982;-59
2022/12/20 13:25:47;;;;;;;33.60;20.85;;;;;;;0.91;81.47;98683.27;1848846;77;20939;-59
2022/12/20 13:28:28;;;;;;;29.85;19.40;;;;;;;0.88;81.56;98687.64;1849057;77;21190;-59
2022/12/20 13:31:08;;;;;;;32.20;21.50;;;;;;;0.88;81.73;98682.87;1838988;77;20953;-60
2022/12/20 13:33:46;;;;;;;36.08;23.65;;;;;;;0.89;81.90;98684.00;1843546;77;20919;-62
2022/12/20 13:36:18;;;;;;;43.40;28.20;;;;;;;0.87;82.10;98682.09;1822429;77;21375;-63
2022/12/20 13:38:52;;;;;;;36.70;25.15;;;;;;;0.84;82.17;98686.46;1815995;77;20911;-62
2022/12/20 13:41:33;;;;;;;39.80;26.42;;;;;;;0.81;82.32;98688.19;1816127;79;21078;-59
2022/12/20 13:44:18;;;;;;;35.85;23.45;;;;;;;0.78;82.53;98687.28;1824134;77;21000;-56
2022/12/20 13:46:59;;;;;;;36.95;22.25;;;;;;;0.76;82.61;98690.65;1834916;77;21013;-60
2022/12/20 13:49:28;;;;;;;36.00;21.77;;;;;;;0.74;82.77;98691.88;1834537;77;20893;-58
2022/12/20 13:52:31;;;;;;;38.28;22.05;;;;;;;0.73;82.96;98700.29;1823161;77;20919;-57
